createdAt,value
2022-10-22T00:01:30.148Z,4.34
2022-10-22T00:03:58.462Z,4.53
2022-10-22T00:06:27.007Z,4.46
2022-10-22T00:08:55.819Z,4.44
2022-10-22T00:11:24.300Z,4.76
2022-10-22T00:13:52.858Z,4.73
2022-10-22T00:16:21.279Z,4.57
2022-10-22T00:18:49.592Z,4.78
2022-10-22T00:21:18.125Z,4.77
2022-10-22T00:23:46.624Z,4.84
2022-10-22T00:26:15.677Z,4.81
2022-10-22T00:28:44.214Z,5.04
2022-10-22T00:31:12.636Z,4.96
2022-10-22T00:33:41.207Z,5.10
2022-10-22T00:36:10.153Z,5.14
2022-10-22T00:38:40.005Z,5.07
2022-10-22T00:41:09.506Z,5.13
2022-10-22T00:43:56.535Z,5.05
2022-10-22T00:46:24.958Z,5.14
2022-10-22T00:48:55.211Z,5.14
2022-10-22T00:51:26.584Z,5.19
2022-10-22T00:54:01.075Z,5.24
2022-10-22T00:56:30.057Z,5.32
2022-10-22T00:59:01.415Z,5.32
2022-10-22T01:01:33.004Z,5.41
2022-10-22T01:04:02.145Z,5.04
2022-10-22T01:06:33.116Z,5.34
2022-10-22T01:09:14.240Z,5.39
2022-10-22T01:11:51.976Z,5.43
2022-10-22T01:14:26.336Z,5.45
2022-10-22T01:17:06.335Z,5.34
2022-10-22T01:19:50.711Z,5.47
2022-10-22T01:22:30.612Z,5.45
2022-10-22T01:25:17.998Z,5.35
2022-10-22T01:27:49.502Z,5.47
2022-10-22T01:30:19.360Z,5.06
2022-10-22T01:32:52.716Z,5.23
2022-10-22T01:35:29.812Z,5.36
2022-10-22T01:38:02.138Z,5.47
2022-10-22T01:40:31.455Z,5.39
2022-10-22T01:43:05.559Z,5.33
2022-10-22T01:45:44.316Z,5.37
2022-10-22T01:48:25.355Z,5.50
2022-10-22T01:51:16.558Z,5.53
2022-10-22T01:54:02.518Z,5.49
2022-10-22T01:57:06.466Z,5.33
2022-10-22T02:00:00.737Z,5.26
2022-10-22T02:02:49.022Z,5.55
2022-10-22T02:05:24.169Z,5.53
2022-10-22T02:08:03.388Z,5.62
2022-10-22T02:10:32.277Z,5.25
2022-10-22T02:13:02.459Z,5.42
2022-10-22T02:15:34.013Z,5.48
2022-10-22T02:18:03.596Z,5.43
2022-10-22T02:20:37.631Z,5.55
2022-10-22T02:23:06.901Z,5.53
2022-10-22T02:25:39.618Z,5.70
2022-10-22T02:28:38.330Z,5.63
2022-10-22T02:31:15.542Z,5.57
2022-10-22T02:33:50.178Z,5.63
2022-10-22T02:36:19.970Z,5.73
2022-10-22T02:38:50.581Z,5.77
2022-10-22T02:41:21.436Z,5.87
2022-10-22T02:43:56.466Z,5.79
2022-10-22T02:46:26.603Z,5.71
2022-10-22T02:48:55.081Z,5.85
2022-10-22T02:51:23.549Z,5.77
2022-10-22T02:53:52.091Z,5.85
2022-10-22T02:56:20.638Z,5.95
2022-10-22T02:58:52.183Z,5.86
2022-10-22T03:01:20.842Z,5.77
2022-10-22T03:03:49.594Z,5.98
2022-10-22T03:06:18.984Z,5.96
2022-10-22T03:08:47.702Z,6.00
2022-10-22T03:11:16.112Z,5.89
2022-10-22T03:13:47.192Z,5.97
2022-10-22T03:16:15.541Z,5.71
2022-10-22T03:18:44.279Z,5.83
2022-10-22T03:21:31.801Z,5.95
2022-10-22T03:24:04.919Z,5.80
2022-10-22T03:26:34.720Z,5.84
2022-10-22T03:29:03.520Z,5.85
2022-10-22T03:31:32.326Z,5.89
2022-10-22T03:34:01.083Z,5.84
2022-10-22T03:36:29.617Z,5.84
2022-10-22T03:38:58.388Z,5.81
2022-10-22T03:41:27.655Z,5.91
2022-10-22T03:43:58.004Z,5.92
2022-10-22T03:46:26.537Z,5.72
2022-10-22T03:48:57.738Z,5.73
2022-10-22T03:51:29.039Z,5.81
2022-10-22T03:53:57.513Z,5.75
2022-10-22T03:56:26.192Z,5.86
2022-10-22T03:58:58.362Z,5.78
2022-10-22T04:01:28.737Z,5.80
2022-10-22T04:03:58.374Z,5.51
2022-10-22T04:06:27.101Z,5.81
2022-10-22T04:08:55.737Z,5.71
2022-10-22T04:11:24.435Z,5.61
2022-10-22T04:13:52.879Z,5.73
2022-10-22T04:16:25.049Z,5.78
2022-10-22T04:18:55.878Z,5.66
2022-10-22T04:21:24.819Z,5.44
2022-10-22T04:23:54.476Z,5.74
2022-10-22T04:26:23.360Z,5.61
2022-10-22T04:28:53.063Z,5.67
2022-10-22T04:31:24.442Z,5.54
2022-10-22T04:33:57.175Z,5.63
2022-10-22T04:36:26.222Z,5.56
2022-10-22T04:39:01.035Z,5.66
2022-10-22T04:41:35.459Z,5.85
2022-10-22T04:44:04.755Z,5.94
2022-10-22T04:46:36.605Z,5.96
2022-10-22T04:49:05.955Z,5.81
2022-10-22T04:51:34.468Z,5.80
2022-10-22T04:54:03.325Z,5.61
2022-10-22T04:56:33.084Z,5.75
2022-10-22T04:59:08.181Z,5.66
2022-10-22T05:01:42.663Z,5.63
2022-10-22T05:04:17.526Z,5.54
2022-10-22T05:06:46.292Z,5.50
2022-10-22T05:09:18.596Z,5.61
2022-10-22T05:11:50.627Z,5.52
2022-10-22T05:14:22.347Z,5.49
2022-10-22T05:16:51.557Z,5.36
2022-10-22T05:19:25.518Z,5.55
2022-10-22T05:21:56.108Z,5.62
2022-10-22T05:24:24.951Z,5.41
2022-10-22T05:26:58.010Z,5.65
2022-10-22T05:29:27.261Z,5.71
2022-10-22T05:31:56.218Z,5.73
2022-10-22T05:34:24.729Z,5.64
2022-10-22T05:36:53.469Z,5.71
2022-10-22T05:39:22.128Z,5.62
2022-10-22T05:41:50.607Z,5.75
2022-10-22T05:44:19.310Z,5.64
2022-10-22T05:46:51.265Z,5.61
2022-10-22T05:49:19.743Z,5.63
2022-10-22T05:51:48.321Z,5.60
2022-10-22T05:54:21.286Z,5.60
2022-10-22T05:56:50.089Z,5.63
2022-10-22T05:59:18.411Z,5.23
2022-10-22T06:01:47.146Z,5.57
2022-10-22T06:04:16.915Z,5.44
2022-10-22T06:06:48.777Z,5.51
2022-10-22T06:09:22.857Z,5.37
2022-10-22T06:11:52.160Z,5.41
2022-10-22T06:14:22.075Z,5.41
2022-10-22T06:16:51.517Z,5.53
2022-10-22T06:19:22.473Z,5.28
2022-10-22T06:21:51.133Z,5.48
2022-10-22T06:24:20.357Z,5.54
2022-10-22T06:26:53.074Z,5.40
2022-10-22T06:29:22.215Z,5.52
2022-10-22T06:31:51.237Z,5.42
2022-10-22T06:34:19.918Z,5.47
2022-10-22T06:36:48.656Z,5.39
2022-10-22T06:39:19.055Z,5.45
2022-10-22T06:41:47.915Z,5.41
2022-10-22T06:44:20.600Z,5.55
2022-10-22T06:46:55.339Z,5.48
2022-10-22T06:49:23.822Z,5.42
2022-10-22T06:51:54.260Z,5.51
2022-10-22T06:54:23.714Z,5.35
2022-10-22T06:56:55.901Z,5.39
2022-10-22T06:59:24.339Z,5.55
2022-10-22T07:01:52.971Z,5.47
2022-10-22T07:04:21.782Z,5.46
2022-10-22T07:06:50.494Z,5.42
2022-10-22T07:11:52.579Z,5.33
2022-10-22T07:14:21.019Z,5.37
2022-10-22T07:16:49.503Z,5.30
2022-10-22T07:19:18.281Z,5.21
2022-10-22T07:21:46.782Z,5.27
2022-10-22T07:24:17.712Z,5.16
2022-10-22T07:26:46.391Z,5.01
2022-10-22T07:29:16.361Z,4.92
2022-10-22T07:31:45.473Z,4.99
2022-10-22T07:34:14.301Z,5.12
2022-10-22T07:36:43.231Z,5.07
2022-10-22T07:39:11.932Z,5.01
2022-10-22T07:41:40.403Z,4.97
2022-10-22T07:44:08.996Z,5.02
2022-10-22T07:46:37.560Z,5.17
2022-10-22T07:49:06.641Z,5.16
2022-10-22T07:51:35.227Z,5.05
2022-10-22T07:54:04.172Z,4.72
2022-10-22T07:56:32.822Z,5.01
2022-10-22T08:01:31.007Z,5.02
2022-10-22T08:03:59.609Z,4.97
2022-10-22T08:06:27.995Z,4.90
2022-10-22T08:08:56.862Z,5.04
2022-10-22T08:11:25.886Z,4.90
2022-10-22T08:13:54.738Z,5.02
2022-10-22T08:16:23.660Z,4.95
2022-10-22T08:18:52.380Z,4.84
2022-10-22T08:21:20.947Z,4.98
2022-10-22T08:23:49.527Z,4.83
2022-10-22T08:26:18.990Z,4.87
2022-10-22T08:28:50.101Z,4.90
2022-10-22T08:31:19.069Z,4.89
2022-10-22T08:33:47.491Z,4.93
2022-10-22T08:36:19.023Z,4.67
2022-10-22T08:38:47.742Z,4.68
2022-10-22T08:41:21.567Z,4.97
2022-10-22T08:44:36.656Z,4.87
2022-10-22T08:47:34.333Z,4.88
2022-10-22T08:50:06.046Z,4.84
2022-10-22T08:52:35.804Z,4.86
2022-10-22T09:01:48.868Z,4.63
2022-10-22T09:04:43.791Z,4.43
2022-10-22T09:07:12.766Z,4.56
2022-10-22T09:09:48.747Z,4.44
2022-10-22T09:12:20.287Z,4.31
2022-10-22T09:14:49.455Z,3.99
2022-10-22T09:17:46.470Z,3.93
2022-10-22T09:20:40.459Z,4.27
2022-10-22T09:23:49.047Z,4.18
2022-10-22T09:26:18.547Z,4.11
2022-10-22T09:28:51.679Z,3.90
2022-10-22T09:31:20.371Z,4.01
2022-10-22T09:33:51.703Z,3.99
2022-10-22T09:36:23.694Z,3.81
2022-10-22T09:38:54.165Z,3.81
2022-10-22T09:41:27.106Z,3.81
2022-10-22T09:43:55.789Z,3.65
2022-10-22T09:46:29.792Z,3.67
2022-10-22T09:49:01.154Z,3.65
2022-10-22T09:51:43.121Z,3.55
2022-10-22T09:54:33.801Z,3.37
2022-10-22T09:57:22.770Z,3.38
2022-10-22T09:59:58.180Z,3.16
2022-10-22T10:02:44.718Z,3.26
2022-10-22T10:05:25.755Z,3.11
2022-10-22T10:07:54.300Z,3.07
2022-10-22T10:10:33.364Z,3.04
2022-10-22T10:13:28.040Z,2.85
2022-10-22T10:16:04.981Z,2.93
2022-10-22T10:18:59.340Z,2.81
2022-10-22T10:22:11.282Z,2.71
2022-10-22T10:25:12.942Z,2.79
2022-10-22T10:27:49.832Z,2.33
2022-10-22T10:30:21.787Z,2.74
2022-10-22T10:33:19.855Z,2.65
2022-10-22T10:36:09.549Z,2.58
2022-10-22T10:39:09.665Z,2.47
2022-10-22T10:41:52.606Z,2.36
2022-10-22T10:44:32.288Z,2.28
2022-10-22T10:47:28.370Z,2.22
2022-10-22T10:50:22.517Z,2.03
2022-10-22T10:53:03.155Z,2.11
2022-10-22T10:55:39.722Z,1.96
2022-10-22T10:58:38.782Z,1.82
2022-10-22T11:01:25.319Z,1.92
2022-10-22T11:04:40.199Z,1.75
2022-10-22T11:07:23.416Z,1.81
2022-10-22T11:10:25.328Z,1.59
2022-10-22T11:13:00.185Z,1.56
2022-10-22T11:15:39.174Z,1.57
2022-10-22T11:18:33.376Z,1.61
2022-10-22T11:21:30.465Z,1.26
2022-10-22T11:24:36.517Z,1.50
2022-10-22T11:27:12.421Z,1.39
2022-10-22T11:29:48.749Z,1.19
2022-10-22T11:32:22.003Z,1.15
2022-10-22T11:35:01.921Z,0.82
2022-10-22T11:37:39.647Z,1.04
2022-10-22T11:40:08.628Z,1.08
2022-10-22T11:42:47.437Z,0.87
2022-10-22T11:45:15.818Z,1.01
2022-10-22T11:48:10.880Z,0.84
2022-10-22T11:50:43.300Z,0.89
2022-10-22T11:53:32.236Z,0.84
2022-10-22T11:56:13.898Z,0.74
2022-10-22T11:58:52.160Z,0.63
2022-10-22T12:01:42.249Z,0.67
2022-10-22T12:04:20.136Z,0.51
2022-10-22T12:07:02.697Z,0.47
2022-10-22T12:09:34.250Z,0.57
2022-10-22T12:12:11.043Z,0.61
2022-10-22T12:14:54.570Z,0.53
2022-10-22T12:17:23.892Z,0.44
2022-10-22T12:20:26.426Z,0.44
2022-10-22T12:22:56.482Z,0.40
2022-10-22T12:25:34.749Z,0.35
2022-10-22T12:28:04.803Z,0.28
2022-10-22T12:30:38.024Z,0.35
2022-10-22T12:33:09.097Z,0.01
2022-10-22T12:35:45.377Z,0.18
2022-10-22T12:38:22.609Z,0.26
2022-10-22T12:40:52.581Z,0.30
2022-10-22T12:43:26.529Z,0.30
2022-10-22T12:45:55.719Z,0.30
2022-10-22T12:48:31.527Z,0.16
2022-10-22T12:51:02.737Z,0.13
2022-10-22T12:53:35.808Z,0.13
2022-10-22T12:56:17.195Z,0.25
2022-10-22T12:58:54.108Z,0.13
2022-10-22T13:01:22.887Z,0.13
2022-10-22T13:04:04.932Z,0.24
2022-10-22T13:06:37.171Z,0.06
2022-10-22T13:09:19.678Z,0.18
2022-10-22T13:12:05.877Z,0.18
2022-10-22T13:14:36.944Z,0.05
2022-10-22T13:17:20.572Z,-0.03
2022-10-22T13:20:03.022Z,0.11
2022-10-22T13:22:40.419Z,0.12
2022-10-22T13:25:15.051Z,0.12
2022-10-22T13:27:47.828Z,0.15
2022-10-22T13:30:38.456Z,0.10
2022-10-22T13:33:22.005Z,0.08
2022-10-22T13:35:50.505Z,-0.02
2022-10-22T13:38:24.649Z,0.11
2022-10-22T13:40:57.041Z,-0.12
2022-10-22T13:43:26.269Z,0.09
2022-10-22T13:45:59.200Z,0.11
2022-10-22T13:48:31.195Z,0.05
2022-10-22T13:50:59.901Z,-0.06
2022-10-22T13:53:30.320Z,0.05
2022-10-22T13:55:59.019Z,-0.12
2022-10-22T13:58:27.524Z,-0.02
2022-10-22T14:01:00.669Z,-0.09
2022-10-22T14:03:38.984Z,-0.07
2022-10-22T14:06:14.201Z,0.01
2022-10-22T14:08:43.435Z,-0.22
2022-10-22T14:11:15.402Z,0.00
2022-10-22T14:13:43.983Z,-0.05
2022-10-22T14:16:22.523Z,0.13
2022-10-22T14:18:51.425Z,-0.09
2022-10-22T14:21:20.915Z,-0.06
2022-10-22T14:23:51.730Z,-0.15
2022-10-22T14:26:25.246Z,0.08
2022-10-22T14:29:10.787Z,-0.01
2022-10-22T14:31:42.550Z,-0.21
2022-10-22T14:34:16.306Z,0.05
2022-10-22T14:36:47.168Z,-0.07
2022-10-22T14:39:17.707Z,0.02
2022-10-22T14:41:46.300Z,0.00
2022-10-22T14:44:15.205Z,-0.16
2022-10-22T14:46:44.950Z,0.06
2022-10-22T14:49:13.586Z,-0.11
2022-10-22T14:51:42.387Z,0.07
2022-10-22T14:54:10.657Z,-0.06
2022-10-22T14:56:39.254Z,0.11
2022-10-22T14:59:07.645Z,-0.04
2022-10-22T15:01:36.546Z,-0.10
2022-10-22T15:04:05.205Z,-0.05
2022-10-22T15:06:34.087Z,-0.09
2022-10-22T15:09:03.044Z,0.07
2022-10-22T15:11:31.418Z,-0.12
2022-10-22T15:13:59.912Z,-0.08
2022-10-22T15:16:28.585Z,-0.09
2022-10-22T15:18:57.873Z,-0.10
2022-10-22T15:21:26.524Z,-0.08
2022-10-22T15:23:55.126Z,-0.04
2022-10-22T15:26:23.806Z,-0.06
2022-10-22T15:28:52.485Z,-0.01
2022-10-22T15:31:47.609Z,0.08
2022-10-22T15:34:27.966Z,0.11
2022-10-22T15:36:58.825Z,0.07
2022-10-22T15:39:28.148Z,0.03
2022-10-22T15:41:57.245Z,0.02
2022-10-22T15:44:29.584Z,0.11
2022-10-22T15:46:59.029Z,-0.27
2022-10-22T15:49:29.285Z,0.04
2022-10-22T15:51:57.786Z,0.05
2022-10-22T15:54:30.646Z,0.05
2022-10-22T15:57:02.467Z,-0.28
2022-10-22T15:59:31.452Z,0.04
2022-10-22T16:01:59.906Z,0.08
2022-10-22T16:04:28.487Z,0.07
2022-10-22T16:06:58.467Z,0.18
2022-10-22T16:09:28.827Z,-0.09
2022-10-22T16:11:57.575Z,0.07
2022-10-22T16:14:26.367Z,-0.03
2022-10-22T16:16:56.360Z,0.07
2022-10-22T16:19:26.428Z,-0.27
2022-10-22T16:21:56.714Z,-0.01
2022-10-22T16:24:25.205Z,-0.05
2022-10-22T16:26:53.968Z,-0.09
2022-10-22T16:29:22.625Z,-0.05
2022-10-22T16:31:51.305Z,0.01
2022-10-22T16:34:19.866Z,-0.31
2022-10-22T16:36:49.714Z,0.06
2022-10-22T16:39:18.426Z,-0.08
2022-10-22T16:41:47.727Z,-0.06
2022-10-22T16:44:16.508Z,0.04
2022-10-22T16:46:45.167Z,-0.17
2022-10-22T16:49:13.776Z,-0.06
2022-10-22T16:51:42.446Z,-0.08
2022-10-22T16:54:13.285Z,0.04
2022-10-22T16:56:41.947Z,0.07
2022-10-22T16:59:10.310Z,-0.03
2022-10-22T17:01:41.186Z,-0.04
2022-10-22T17:04:10.661Z,-0.05
2022-10-22T17:06:39.348Z,0.06
2022-10-22T17:09:08.067Z,0.07
2022-10-22T17:11:38.156Z,0.01
2022-10-22T17:14:08.940Z,0.09
2022-10-22T17:16:37.622Z,-0.09
2022-10-22T17:19:06.486Z,-0.01
2022-10-22T17:21:35.104Z,-0.20
2022-10-22T17:24:03.562Z,0.07
2022-10-22T17:26:34.016Z,-0.08
2022-10-22T17:29:02.524Z,-0.34
2022-10-22T17:31:35.040Z,-0.08
2022-10-22T17:34:04.780Z,-0.18
2022-10-22T17:36:35.890Z,-0.02
2022-10-22T17:39:08.158Z,0.01
2022-10-22T17:41:38.213Z,-0.09
2022-10-22T17:44:09.773Z,0.01
2022-10-22T17:46:39.081Z,-0.11
2022-10-22T17:49:14.299Z,-0.06
2022-10-22T17:51:42.857Z,-0.16
2022-10-22T17:54:11.472Z,0.03
2022-10-22T17:56:41.036Z,-0.05
2022-10-22T17:59:13.202Z,-0.14
2022-10-22T18:01:46.102Z,-0.11
2022-10-22T18:04:16.910Z,-0.03
2022-10-22T18:06:48.639Z,-0.03
2022-10-22T18:09:19.807Z,-0.32
2022-10-22T18:11:51.346Z,0.05
2022-10-22T18:14:22.288Z,-0.01
2022-10-22T18:16:51.485Z,-0.12
2022-10-22T18:19:23.459Z,-0.03
2022-10-22T18:21:52.957Z,-0.04
2022-10-22T18:24:21.797Z,-0.02
2022-10-22T18:26:50.323Z,-0.02
2022-10-22T18:29:20.568Z,-0.12
2022-10-22T18:31:50.228Z,-0.11
2022-10-22T18:34:21.688Z,-0.17
2022-10-22T18:36:52.640Z,-0.01
2022-10-22T18:39:21.583Z,-0.01
2022-10-22T18:41:51.652Z,-0.14
2022-10-22T18:44:20.369Z,-0.14
2022-10-22T18:46:49.308Z,-0.27
2022-10-22T18:49:20.646Z,-0.19
2022-10-22T18:51:53.276Z,-0.15
2022-10-22T18:54:24.144Z,-0.19
2022-10-22T18:56:56.254Z,-0.22
2022-10-22T18:59:27.912Z,-0.41
2022-10-22T19:02:00.599Z,-0.37
2022-10-22T19:04:34.225Z,-0.84
2022-10-22T19:07:04.045Z,-0.34
2022-10-22T19:09:32.806Z,-0.37
2022-10-22T19:12:01.732Z,-0.65
2022-10-22T19:14:31.875Z,-0.41
2022-10-22T19:17:00.317Z,-0.42
2022-10-22T19:19:29.077Z,-0.48
2022-10-22T19:22:00.158Z,-0.38
2022-10-22T19:24:28.628Z,-0.54
2022-10-22T19:26:57.207Z,-0.51
2022-10-22T19:29:25.661Z,-0.56
2022-10-22T19:31:54.771Z,-0.64
2022-10-22T19:34:23.304Z,-0.58
2022-10-22T19:36:54.840Z,-0.49
2022-10-22T19:39:23.252Z,-0.49
2022-10-22T19:41:51.972Z,-0.43
2022-10-22T19:44:20.624Z,-0.66
2022-10-22T19:46:49.604Z,-0.43
2022-10-22T19:49:22.092Z,-0.60
2022-10-22T19:51:51.625Z,-0.48
2022-10-22T19:54:20.941Z,-0.71
2022-10-22T19:56:50.440Z,-0.42
2022-10-22T19:59:21.198Z,-0.68
2022-10-22T20:01:50.901Z,-0.58
2022-10-22T20:04:21.032Z,-0.64
2022-10-22T20:06:51.106Z,-0.60
2022-10-22T20:09:19.870Z,-0.54
2022-10-22T20:11:48.599Z,-0.52
2022-10-22T20:14:17.576Z,-0.40
2022-10-22T20:16:46.317Z,-0.49
2022-10-22T20:19:16.965Z,-0.66
2022-10-22T20:21:46.395Z,-0.75
2022-10-22T20:24:15.283Z,-0.71
2022-10-22T20:26:46.991Z,-0.71
2022-10-22T20:29:17.285Z,-0.63
2022-10-22T20:31:46.756Z,-0.79
2022-10-22T20:34:15.414Z,-0.58
2022-10-22T20:36:44.035Z,-0.82
2022-10-22T20:39:15.550Z,-0.76
2022-10-22T20:41:43.818Z,-0.84
2022-10-22T20:44:16.236Z,-0.97
2022-10-22T20:46:45.058Z,-0.98
2022-10-22T20:49:16.954Z,-1.12
2022-10-22T20:51:45.652Z,-1.38
2022-10-22T20:54:15.276Z,-1.46
2022-10-22T20:56:44.534Z,-1.38
2022-10-22T20:59:13.493Z,-1.67
2022-10-22T21:01:53.856Z,-1.53
2022-10-22T21:04:22.936Z,-1.41
2022-10-22T21:06:52.974Z,-1.57
2022-10-22T21:09:22.173Z,-1.45
2022-10-22T21:11:51.379Z,-1.40
2022-10-22T21:14:22.905Z,-1.41
2022-10-22T21:16:53.003Z,-1.30
2022-10-22T21:19:23.145Z,-1.38
2022-10-22T21:21:51.878Z,-1.32
2022-10-22T21:24:25.511Z,-1.41
2022-10-22T21:26:54.838Z,-1.36
2022-10-22T21:29:26.631Z,-1.37
2022-10-22T21:31:55.234Z,-1.25
2022-10-22T21:34:23.935Z,-1.32
2022-10-22T21:36:53.696Z,-1.45
2022-10-22T21:39:22.510Z,-1.34
2022-10-22T21:41:53.853Z,-1.42
2022-10-22T21:44:22.789Z,-1.43
2022-10-22T21:46:51.449Z,-1.30
2022-10-22T21:49:20.101Z,-1.38
2022-10-22T21:51:49.243Z,-1.37
2022-10-22T21:54:18.231Z,-1.15
2022-10-22T21:56:47.072Z,-1.33
2022-10-22T21:59:15.836Z,-1.26
2022-10-22T22:01:45.384Z,-1.08
2022-10-22T22:04:16.040Z,-1.21
2022-10-22T22:06:45.811Z,-1.24
2022-10-22T22:09:14.575Z,-1.20
2022-10-22T22:11:43.130Z,-1.61
2022-10-22T22:14:12.730Z,-1.07
2022-10-22T22:16:41.637Z,-1.21
2022-10-22T22:19:13.575Z,-1.28
2022-10-22T22:21:42.900Z,-0.99
2022-10-22T22:24:14.050Z,-1.20
2022-10-22T22:26:45.646Z,-1.10
2022-10-22T22:29:14.329Z,-1.03
2022-10-22T22:31:44.135Z,-1.04
2022-10-22T22:34:17.081Z,-0.84
2022-10-22T22:36:47.909Z,-0.92
2022-10-22T22:39:22.530Z,-0.80
2022-10-22T22:41:51.114Z,-0.84
2022-10-22T22:44:20.383Z,-1.07
2022-10-22T22:46:49.519Z,-0.96
2022-10-22T22:49:18.396Z,-0.98
2022-10-22T22:51:46.895Z,-0.74
2022-10-22T22:54:16.830Z,-0.81
2022-10-22T22:56:45.872Z,-0.77
2022-10-22T22:59:16.447Z,-1.08
2022-10-22T23:01:48.616Z,-0.96
2022-10-22T23:04:23.535Z,-0.88
2022-10-22T23:06:52.487Z,-0.90
2022-10-22T23:09:21.886Z,-1.05
2022-10-22T23:11:51.817Z,-0.93
2022-10-22T23:14:21.503Z,-0.96
2022-10-22T23:16:53.077Z,-0.91
2022-10-22T23:19:24.306Z,-1.01
2022-10-22T23:21:55.489Z,-1.09
2022-10-22T23:24:26.665Z,-0.95
2022-10-22T23:26:57.061Z,-0.97
2022-10-22T23:29:28.777Z,-0.97
2022-10-22T23:32:07.963Z,-1.09
2022-10-22T23:34:41.282Z,-1.29
2022-10-22T23:37:13.426Z,-1.10
2022-10-22T23:39:42.642Z,-1.15
2022-10-22T23:42:11.223Z,-1.12
2022-10-22T23:44:39.756Z,-0.99
2022-10-22T23:47:08.564Z,-1.12
2022-10-22T23:49:41.486Z,-1.23
2022-10-22T23:52:11.422Z,-1.43
2022-10-22T23:54:40.014Z,-1.45
2022-10-22T23:57:09.133Z,-1.31
2022-10-22T23:59:37.971Z,-1.19
